[x] [x]
.:Aeroklub Partizánske:. |  .:Fotogaléria:. |  .:Videogaléria:. |  .:Foto týždňa:. |  .:Kniha návštev:. |  .:Linky:. |  .:Moje konto:.
 MENU [x]

 METEO [x]

 FotoGaléria [x]

 Slnko [x]
LZPT Partizánske
48°37'N 18°20'E
Východ: 5:10 AM
Západ: 8:36 PM
LZIB Bratislava
48°10'N 17°12'E
Východ: 5:16 AM
Západ: 8:39 PM
LZKZ Košice
48°39'N 21°14'E
Východ: 4:58 AM
Západ: 8:24 PM

 Jazyky [x]
Vyberte jazyk rozhrania:

Slovak English German Polish


  SPRÁVY METAR - ČESKÁ REPUBLIKA
Brno-TuřanyLKTB 241230Z VRB03KT CAVOK 27/18 Q1018 NOSIGdekóduj
ČáslavLKCV 241200Z VRB02KT 9999 FEW007 OVC080 21/19 Q1019 RERA NOSIG RMK BLU BLUdekóduj
HolešovLKHO 010800Z VRB03KT CAVOK 23/17 Q1019dekóduj
Hradec Královedekóduj
Karlovy VaryLKKV 241234Z 01007KT 340V060 9999 -SHRA VCTS FEW017CB 21/17 Q1020 RMK REG QNH 1015dekóduj
KunoviceLKKU 221400Z VRB02KT CAVOK 29/13 Q1014dekóduj
LiberecLKLB 020602Z 16003KT 9999 FEW016 BKN043 M01/M02 Q1016dekóduj
Mariánsky Láznědekóduj
Náměšť nad OslavouLKNA 241200Z 35003KT 9999 SCT030 BKN050 24/16 Q1020 NOSIGdekóduj
Ostrava-MošnovLKMT 241230Z 02003KT 330V080 9999 FEW044 26/17 Q1018 NOSIGdekóduj
PardubiceLKPD 241200Z 24004KT 9999 FEW010 OVC090 21/18 Q1019 NOSIG RMK BLU BLUdekóduj
Praha-KbelyLKKB 241200Z 06004KT 360V130 9999 SCT015 BKN060 23/19 Q1019 NOSIGdekóduj
Praha-RuzyněLKPR 241230Z 08004KT 050V130 9999 FEW020TCU BKN026 23/17 Q1019 NOSIGdekóduj
PřerovLKPO 010000Z 05005KT CAVOK 04/01 Q1013dekóduj
 FreeFly INFO [x]
COROWA 2009


COROWA 2009


COROWA 2009



 LZPT webcam [x]

 Foto týždňa [x]

 KBO SNA [x]

 Login [x]
Užívateľské meno

Heslo


Ešte nemáš konto? Môžeš si ho vytvoriť. Registrovaný užívateľ má množstvo výhod, napr. posielanie okamžitých správ iným užívateľom, posielanie komentárov s vlastným menom, možnosť pridávať fotografie do galérie...

 Kto je online [x]
Momentálne je online 106 hostí a 0 členov.

Ste anonymný užívateľ. Zaregistrovať sa môžete tu

DETAILY

 Linky [x]

 Počítadlo návštev [x]
Zaznamenali sme
40318991
strán zobrazených od júna 2003

Počet dnešných unikátnych IP adries:
0



www.freefly.sk
Powered by SzMsoft ©2003-2005. Polish translations by Cezary Dąbek. Flying server www.freefly.sk is administrated by maro@freefly.sk - www.artweb.freefly.sk
PHP-Nuke Copyright © 2004 by Francisco Burzi. This is free software, and you may redistribute it under the GPL. PHP-Nuke comes with absolutely no warranty, for details, see the license.